sensor_id;sensor_type;location;lat;lon;timestamp;P1;durP1;ratioP1;P2;durP2;ratioP2
31081;SDS011;17737;52.586;13.284;2023-05-07T00:01:30;0.50;;;0.50;;
31081;SDS011;17737;52.586;13.284;2023-05-07T00:03:58;0.40;;;0.40;;
31081;SDS011;17737;52.586;13.284;2023-05-07T00:06:26;0.40;;;0.40;;
31081;SDS011;17737;52.586;13.284;2023-05-07T00:08:57;0.50;;;0.50;;
31081;SDS011;17737;52.586;13.284;2023-05-07T00:11:26;0.40;;;0.40;;
31081;SDS011;17737;52.586;13.284;2023-05-07T00:13:54;0.43;;;0.43;;
31081;SDS011;17737;52.586;13.284;2023-05-07T00:16:22;0.30;;;0.30;;
31081;SDS011;17737;52.586;13.284;2023-05-07T00:18:50;0.30;;;0.30;;
31081;SDS011;17737;52.586;13.284;2023-05-07T00:21:19;0.50;;;0.50;;
31081;SDS011;17737;52.586;13.284;2023-05-07T00:23:48;0.40;;;0.40;;
31081;SDS011;17737;52.586;13.284;2023-05-07T00:26:17;0.50;;;0.50;;
31081;SDS011;17737;52.586;13.284;2023-05-07T00:28:45;0.35;;;0.35;;
31081;SDS011;17737;52.586;13.284;2023-05-07T00:31:13;0.38;;;0.38;;
31081;SDS011;17737;52.586;13.284;2023-05-07T00:33:41;0.50;;;0.50;;
31081;SDS011;17737;52.586;13.284;2023-05-07T00:36:09;0.55;;;0.55;;
31081;SDS011;17737;52.586;13.284;2023-05-07T00:38:37;0.40;;;0.40;;
31081;SDS011;17737;52.586;13.284;2023-05-07T00:41:05;0.40;;;0.40;;
31081;SDS011;17737;52.586;13.284;2023-05-07T00:43:35;0.40;;;0.40;;
31081;SDS011;17737;52.586;13.284;2023-05-07T00:46:02;0.40;;;0.40;;
31081;SDS011;17737;52.586;13.284;2023-05-07T00:48:31;0.38;;;0.38;;
31081;SDS011;17737;52.586;13.284;2023-05-07T00:50:59;0.40;;;0.40;;
31081;SDS011;17737;52.586;13.284;2023-05-07T00:53:28;0.40;;;0.40;;
31081;SDS011;17737;52.586;13.284;2023-05-07T00:55:56;0.40;;;0.40;;
31081;SDS011;17737;52.586;13.284;2023-05-07T00:58:24;0.40;;;0.40;;
31081;SDS011;17737;52.586;13.284;2023-05-07T01:00:54;0.30;;;0.30;;
31081;SDS011;17737;52.586;13.284;2023-05-07T01:03:22;0.40;;;0.40;;
31081;SDS011;17737;52.586;13.284;2023-05-07T01:05:50;0.35;;;0.35;;
31081;SDS011;17737;52.586;13.284;2023-05-07T01:08:21;0.40;;;0.40;;
31081;SDS011;17737;52.586;13.284;2023-05-07T01:10:52;0.40;;;0.40;;
31081;SDS011;17737;52.586;13.284;2023-05-07T01:13:22;0.30;;;0.30;;
31081;SDS011;17737;52.586;13.284;2023-05-07T01:15:53;0.50;;;0.50;;
31081;SDS011;17737;52.586;13.284;2023-05-07T01:18:21;0.40;;;0.40;;
31081;SDS011;17737;52.586;13.284;2023-05-07T01:20:49;0.30;;;0.30;;
31081;SDS011;17737;52.586;13.284;2023-05-07T01:23:20;0.30;;;0.30;;
31081;SDS011;17737;52.586;13.284;2023-05-07T01:28:20;0.40;;;0.40;;
31081;SDS011;17737;52.586;13.284;2023-05-07T01:30:48;0.40;;;0.40;;
31081;SDS011;17737;52.586;13.284;2023-05-07T01:33:21;0.40;;;0.40;;
31081;SDS011;17737;52.586;13.284;2023-05-07T01:35:51;0.45;;;0.45;;
31081;SDS011;17737;52.586;13.284;2023-05-07T01:38:22;0.47;;;0.47;;
31081;SDS011;17737;52.586;13.284;2023-05-07T01:40:51;0.40;;;0.40;;
31081;SDS011;17737;52.586;13.284;2023-05-07T01:43:20;0.50;;;0.50;;
31081;SDS011;17737;52.586;13.284;2023-05-07T01:45:48;0.52;;;0.40;;
31081;SDS011;17737;52.586;13.284;2023-05-07T01:48:17;0.30;;;0.30;;
31081;SDS011;17737;52.586;13.284;2023-05-07T01:50:45;0.40;;;0.40;;
31081;SDS011;17737;52.586;13.284;2023-05-07T01:53:15;0.50;;;0.50;;
31081;SDS011;17737;52.586;13.284;2023-05-07T01:55:44;0.40;;;0.40;;
31081;SDS011;17737;52.586;13.284;2023-05-07T01:58:12;0.30;;;0.30;;
31081;SDS011;17737;52.586;13.284;2023-05-07T02:00:40;0.47;;;0.47;;
31081;SDS011;17737;52.586;13.284;2023-05-07T02:03:08;0.40;;;0.40;;
31081;SDS011;17737;52.586;13.284;2023-05-07T02:05:37;0.30;;;0.30;;
31081;SDS011;17737;52.586;13.284;2023-05-07T02:08:04;0.40;;;0.40;;
31081;SDS011;17737;52.586;13.284;2023-05-07T02:10:32;0.40;;;0.40;;
31081;SDS011;17737;52.586;13.284;2023-05-07T02:13:03;0.40;;;0.40;;
31081;SDS011;17737;52.586;13.284;2023-05-07T02:15:31;0.40;;;0.40;;
31081;SDS011;17737;52.586;13.284;2023-05-07T02:18:00;0.40;;;0.40;;
31081;SDS011;17737;52.586;13.284;2023-05-07T02:20:30;0.40;;;0.40;;
31081;SDS011;17737;52.586;13.284;2023-05-07T02:22:58;0.40;;;0.40;;
31081;SDS011;17737;52.586;13.284;2023-05-07T02:25:26;0.43;;;0.43;;
31081;SDS011;17737;52.586;13.284;2023-05-07T02:27:55;0.43;;;0.43;;
31081;SDS011;17737;52.586;13.284;2023-05-07T02:30:25;0.20;;;0.20;;
31081;SDS011;17737;52.586;13.284;2023-05-07T02:32:53;0.35;;;0.35;;
31081;SDS011;17737;52.586;13.284;2023-05-07T02:35:21;0.35;;;0.35;;
31081;SDS011;17737;52.586;13.284;2023-05-07T02:37:51;0.40;;;0.40;;
31081;SDS011;17737;52.586;13.284;2023-05-07T02:40:19;0.50;;;0.50;;
31081;SDS011;17737;52.586;13.284;2023-05-07T02:42:47;0.40;;;0.40;;
31081;SDS011;17737;52.586;13.284;2023-05-07T02:45:15;0.50;;;0.50;;
31081;SDS011;17737;52.586;13.284;2023-05-07T02:47:45;0.60;;;0.60;;
31081;SDS011;17737;52.586;13.284;2023-05-07T02:50:13;0.57;;;0.57;;
31081;SDS011;17737;52.586;13.284;2023-05-07T02:52:41;0.38;;;0.38;;
31081;SDS011;17737;52.586;13.284;2023-05-07T02:55:09;0.32;;;0.32;;
31081;SDS011;17737;52.586;13.284;2023-05-07T02:57:37;0.35;;;0.35;;
31081;SDS011;17737;52.586;13.284;2023-05-07T03:00:12;0.40;;;0.40;;
31081;SDS011;17737;52.586;13.284;2023-05-07T03:02:45;0.30;;;0.30;;
31081;SDS011;17737;52.586;13.284;2023-05-07T03:05:13;0.50;;;0.50;;
31081;SDS011;17737;52.586;13.284;2023-05-07T03:07:41;0.30;;;0.30;;
31081;SDS011;17737;52.586;13.284;2023-05-07T03:10:11;0.40;;;0.40;;
31081;SDS011;17737;52.586;13.284;2023-05-07T03:12:40;0.40;;;0.40;;
31081;SDS011;17737;52.586;13.284;2023-05-07T03:15:09;0.40;;;0.40;;
31081;SDS011;17737;52.586;13.284;2023-05-07T03:17:38;0.50;;;0.50;;
31081;SDS011;17737;52.586;13.284;2023-05-07T03:20:08;0.40;;;0.40;;
31081;SDS011;17737;52.586;13.284;2023-05-07T03:22:38;0.43;;;0.43;;
31081;SDS011;17737;52.586;13.284;2023-05-07T03:25:06;0.40;;;0.40;;
31081;SDS011;17737;52.586;13.284;2023-05-07T03:27:36;0.40;;;0.40;;
31081;SDS011;17737;52.586;13.284;2023-05-07T03:30:05;0.40;;;0.40;;
31081;SDS011;17737;52.586;13.284;2023-05-07T03:32:35;0.50;;;0.50;;
31081;SDS011;17737;52.586;13.284;2023-05-07T03:35:03;0.40;;;0.40;;
31081;SDS011;17737;52.586;13.284;2023-05-07T03:37:33;0.38;;;0.38;;
31081;SDS011;17737;52.586;13.284;2023-05-07T03:40:01;0.40;;;0.40;;
31081;SDS011;17737;52.586;13.284;2023-05-07T03:42:30;0.32;;;0.32;;
31081;SDS011;17737;52.586;13.284;2023-05-07T03:44:58;0.50;;;0.50;;
31081;SDS011;17737;52.586;13.284;2023-05-07T03:47:26;0.50;;;0.50;;
31081;SDS011;17737;52.586;13.284;2023-05-07T03:49:54;0.40;;;0.40;;
31081;SDS011;17737;52.586;13.284;2023-05-07T03:52:23;0.38;;;0.38;;
31081;SDS011;17737;52.586;13.284;2023-05-07T03:54:53;0.40;;;0.40;;
31081;SDS011;17737;52.586;13.284;2023-05-07T03:57:21;0.38;;;0.38;;
31081;SDS011;17737;52.586;13.284;2023-05-07T03:59:49;0.32;;;0.32;;
31081;SDS011;17737;52.586;13.284;2023-05-07T04:02:17;0.30;;;0.30;;
31081;SDS011;17737;52.586;13.284;2023-05-07T04:04:47;0.55;;;0.55;;
31081;SDS011;17737;52.586;13.284;2023-05-07T04:07:16;0.30;;;0.30;;
31081;SDS011;17737;52.586;13.284;2023-05-07T04:09:44;0.32;;;0.32;;
31081;SDS011;17737;52.586;13.284;2023-05-07T04:12:14;0.32;;;0.32;;
31081;SDS011;17737;52.586;13.284;2023-05-07T04:14:43;0.32;;;0.32;;
31081;SDS011;17737;52.586;13.284;2023-05-07T04:17:10;0.40;;;0.40;;
31081;SDS011;17737;52.586;13.284;2023-05-07T04:19:39;0.40;;;0.40;;
31081;SDS011;17737;52.586;13.284;2023-05-07T04:22:11;0.40;;;0.40;;
31081;SDS011;17737;52.586;13.284;2023-05-07T04:24:39;0.35;;;0.35;;
31081;SDS011;17737;52.586;13.284;2023-05-07T04:27:07;0.40;;;0.40;;
31081;SDS011;17737;52.586;13.284;2023-05-07T04:29:36;0.65;;;0.60;;
31081;SDS011;17737;52.586;13.284;2023-05-07T04:32:08;0.30;;;0.30;;
31081;SDS011;17737;52.586;13.284;2023-05-07T04:34:37;0.50;;;0.50;;
31081;SDS011;17737;52.586;13.284;2023-05-07T04:37:05;0.40;;;0.40;;
31081;SDS011;17737;52.586;13.284;2023-05-07T04:39:33;0.40;;;0.40;;
31081;SDS011;17737;52.586;13.284;2023-05-07T04:42:01;0.40;;;0.40;;
31081;SDS011;17737;52.586;13.284;2023-05-07T04:44:30;0.40;;;0.40;;
31081;SDS011;17737;52.586;13.284;2023-05-07T04:46:59;0.43;;;0.43;;
31081;SDS011;17737;52.586;13.284;2023-05-07T04:49:27;0.40;;;0.40;;
31081;SDS011;17737;52.586;13.284;2023-05-07T04:51:55;0.50;;;0.50;;
31081;SDS011;17737;52.586;13.284;2023-05-07T04:54:23;0.50;;;0.50;;
31081;SDS011;17737;52.586;13.284;2023-05-07T04:56:52;0.50;;;0.50;;
31081;SDS011;17737;52.586;13.284;2023-05-07T04:59:20;0.40;;;0.40;;
31081;SDS011;17737;52.586;13.284;2023-05-07T05:01:48;0.25;;;0.20;;
31081;SDS011;17737;52.586;13.284;2023-05-07T05:04:18;0.30;;;0.30;;
31081;SDS011;17737;52.586;13.284;2023-05-07T05:06:46;0.57;;;0.57;;
31081;SDS011;17737;52.586;13.284;2023-05-07T05:09:14;0.40;;;0.40;;
31081;SDS011;17737;52.586;13.284;2023-05-07T05:11:42;0.47;;;0.47;;
31081;SDS011;17737;52.586;13.284;2023-05-07T05:14:10;0.50;;;0.50;;
31081;SDS011;17737;52.586;13.284;2023-05-07T05:16:38;0.30;;;0.30;;
31081;SDS011;17737;52.586;13.284;2023-05-07T05:19:06;0.30;;;0.30;;
31081;SDS011;17737;52.586;13.284;2023-05-07T05:21:36;0.57;;;0.57;;
31081;SDS011;17737;52.586;13.284;2023-05-07T05:24:04;0.40;;;0.40;;
31081;SDS011;17737;52.586;13.284;2023-05-07T05:26:34;0.40;;;0.40;;
31081;SDS011;17737;52.586;13.284;2023-05-07T05:29:02;0.50;;;0.50;;
31081;SDS011;17737;52.586;13.284;2023-05-07T05:31:30;0.32;;;0.32;;
31081;SDS011;17737;52.586;13.284;2023-05-07T05:33:58;0.43;;;0.40;;
31081;SDS011;17737;52.586;13.284;2023-05-07T05:36:26;0.40;;;0.40;;
31081;SDS011;17737;52.586;13.284;2023-05-07T05:38:55;0.38;;;0.38;;
31081;SDS011;17737;52.586;13.284;2023-05-07T05:41:23;0.45;;;0.45;;
31081;SDS011;17737;52.586;13.284;2023-05-07T05:43:52;0.50;;;0.50;;
31081;SDS011;17737;52.586;13.284;2023-05-07T05:46:20;0.50;;;0.50;;
31081;SDS011;17737;52.586;13.284;2023-05-07T05:48:48;0.40;;;0.40;;
31081;SDS011;17737;52.586;13.284;2023-05-07T05:51:16;0.40;;;0.40;;
31081;SDS011;17737;52.586;13.284;2023-05-07T05:53:44;0.43;;;0.43;;
31081;SDS011;17737;52.586;13.284;2023-05-07T05:56:13;0.20;;;0.20;;
31081;SDS011;17737;52.586;13.284;2023-05-07T06:01:09;0.50;;;0.50;;
31081;SDS011;17737;52.586;13.284;2023-05-07T06:03:38;0.40;;;0.40;;
31081;SDS011;17737;52.586;13.284;2023-05-07T06:06:06;0.40;;;0.40;;
31081;SDS011;17737;52.586;13.284;2023-05-07T06:08:34;0.40;;;0.40;;
31081;SDS011;17737;52.586;13.284;2023-05-07T06:11:02;0.40;;;0.40;;
31081;SDS011;17737;52.586;13.284;2023-05-07T06:13:31;0.30;;;0.30;;
31081;SDS011;17737;52.586;13.284;2023-05-07T06:15:59;0.32;;;0.32;;
31081;SDS011;17737;52.586;13.284;2023-05-07T06:18:27;0.30;;;0.30;;
31081;SDS011;17737;52.586;13.284;2023-05-07T06:20:55;0.35;;;0.35;;
31081;SDS011;17737;52.586;13.284;2023-05-07T06:23:23;0.30;;;0.30;;
31081;SDS011;17737;52.586;13.284;2023-05-07T06:25:51;0.20;;;0.20;;
31081;SDS011;17737;52.586;13.284;2023-05-07T06:28:19;0.30;;;0.30;;
31081;SDS011;17737;52.586;13.284;2023-05-07T06:30:49;0.20;;;0.20;;
31081;SDS011;17737;52.586;13.284;2023-05-07T06:33:17;0.30;;;0.30;;
31081;SDS011;17737;52.586;13.284;2023-05-07T06:35:45;0.22;;;0.22;;
31081;SDS011;17737;52.586;13.284;2023-05-07T06:38:13;0.30;;;0.30;;
31081;SDS011;17737;52.586;13.284;2023-05-07T06:40:41;0.30;;;0.30;;
31081;SDS011;17737;52.586;13.284;2023-05-07T06:43:09;0.30;;;0.30;;
31081;SDS011;17737;52.586;13.284;2023-05-07T06:45:37;0.40;;;0.40;;
31081;SDS011;17737;52.586;13.284;2023-05-07T06:48:07;0.30;;;0.30;;
31081;SDS011;17737;52.586;13.284;2023-05-07T06:50:34;0.40;;;0.40;;
31081;SDS011;17737;52.586;13.284;2023-05-07T06:53:02;0.30;;;0.30;;
31081;SDS011;17737;52.586;13.284;2023-05-07T06:55:30;0.30;;;0.30;;
31081;SDS011;17737;52.586;13.284;2023-05-07T06:57:58;0.40;;;0.40;;
31081;SDS011;17737;52.586;13.284;2023-05-07T07:00:27;0.50;;;0.50;;
31081;SDS011;17737;52.586;13.284;2023-05-07T07:02:55;0.30;;;0.30;;
31081;SDS011;17737;52.586;13.284;2023-05-07T07:05:25;0.20;;;0.20;;
31081;SDS011;17737;52.586;13.284;2023-05-07T07:07:53;0.30;;;0.30;;
31081;SDS011;17737;52.586;13.284;2023-05-07T07:10:21;0.30;;;0.30;;
31081;SDS011;17737;52.586;13.284;2023-05-07T07:12:50;0.30;;;0.30;;
31081;SDS011;17737;52.586;13.284;2023-05-07T07:15:19;0.32;;;0.32;;
31081;SDS011;17737;52.586;13.284;2023-05-07T07:17:47;0.40;;;0.40;;
31081;SDS011;17737;52.586;13.284;2023-05-07T07:20:16;0.40;;;0.40;;
31081;SDS011;17737;52.586;13.284;2023-05-07T07:22:45;0.30;;;0.30;;
31081;SDS011;17737;52.586;13.284;2023-05-07T07:25:13;0.28;;;0.28;;
31081;SDS011;17737;52.586;13.284;2023-05-07T07:27:41;0.38;;;0.38;;
31081;SDS011;17737;52.586;13.284;2023-05-07T07:30:09;0.30;;;0.30;;
31081;SDS011;17737;52.586;13.284;2023-05-07T07:32:38;0.30;;;0.30;;
31081;SDS011;17737;52.586;13.284;2023-05-07T07:35:06;0.22;;;0.22;;
31081;SDS011;17737;52.586;13.284;2023-05-07T07:40:06;0.40;;;0.40;;
31081;SDS011;17737;52.586;13.284;2023-05-07T07:42:35;0.30;;;0.30;;
31081;SDS011;17737;52.586;13.284;2023-05-07T07:45:04;0.50;;;0.50;;
31081;SDS011;17737;52.586;13.284;2023-05-07T07:47:33;0.30;;;0.30;;
31081;SDS011;17737;52.586;13.284;2023-05-07T07:50:02;0.32;;;0.32;;
31081;SDS011;17737;52.586;13.284;2023-05-07T07:52:30;0.35;;;0.35;;
31081;SDS011;17737;52.586;13.284;2023-05-07T07:54:58;0.30;;;0.30;;
31081;SDS011;17737;52.586;13.284;2023-05-07T07:57:27;0.20;;;0.20;;
31081;SDS011;17737;52.586;13.284;2023-05-07T07:59:55;0.30;;;0.30;;
31081;SDS011;17737;52.586;13.284;2023-05-07T08:02:23;0.30;;;0.30;;
31081;SDS011;17737;52.586;13.284;2023-05-07T08:04:52;0.30;;;0.30;;
31081;SDS011;17737;52.586;13.284;2023-05-07T08:07:20;0.30;;;0.30;;
31081;SDS011;17737;52.586;13.284;2023-05-07T08:09:48;0.20;;;0.20;;
31081;SDS011;17737;52.586;13.284;2023-05-07T08:12:16;0.30;;;0.30;;
31081;SDS011;17737;52.586;13.284;2023-05-07T08:14:47;0.30;;;0.30;;
31081;SDS011;17737;52.586;13.284;2023-05-07T08:17:15;0.38;;;0.38;;
31081;SDS011;17737;52.586;13.284;2023-05-07T08:19:43;0.35;;;0.35;;
31081;SDS011;17737;52.586;13.284;2023-05-07T08:22:11;0.20;;;0.20;;
31081;SDS011;17737;52.586;13.284;2023-05-07T08:24:39;0.32;;;0.32;;
31081;SDS011;17737;52.586;13.284;2023-05-07T08:27:07;0.20;;;0.20;;
31081;SDS011;17737;52.586;13.284;2023-05-07T08:29:35;0.28;;;0.28;;
31081;SDS011;17737;52.586;13.284;2023-05-07T08:32:04;0.20;;;0.20;;
31081;SDS011;17737;52.586;13.284;2023-05-07T08:34:32;0.30;;;0.30;;
31081;SDS011;17737;52.586;13.284;2023-05-07T08:37:00;0.28;;;0.28;;
31081;SDS011;17737;52.586;13.284;2023-05-07T08:39:29;0.20;;;0.20;;
31081;SDS011;17737;52.586;13.284;2023-05-07T08:41:57;0.25;;;0.25;;
31081;SDS011;17737;52.586;13.284;2023-05-07T08:44:30;0.40;;;0.40;;
31081;SDS011;17737;52.586;13.284;2023-05-07T08:47:01;0.30;;;0.30;;
31081;SDS011;17737;52.586;13.284;2023-05-07T08:49:31;0.20;;;0.20;;
31081;SDS011;17737;52.586;13.284;2023-05-07T08:52:02;0.20;;;0.20;;
31081;SDS011;17737;52.586;13.284;2023-05-07T08:54:33;0.35;;;0.35;;
31081;SDS011;17737;52.586;13.284;2023-05-07T08:57:03;0.20;;;0.20;;
31081;SDS011;17737;52.586;13.284;2023-05-07T08:59:31;0.38;;;0.38;;
31081;SDS011;17737;52.586;13.284;2023-05-07T09:01:59;0.30;;;0.30;;
31081;SDS011;17737;52.586;13.284;2023-05-07T09:04:28;0.30;;;0.30;;
31081;SDS011;17737;52.586;13.284;2023-05-07T09:09:31;0.30;;;0.30;;
31081;SDS011;17737;52.586;13.284;2023-05-07T09:12:00;0.30;;;0.30;;
31081;SDS011;17737;52.586;13.284;2023-05-07T09:14:29;0.20;;;0.20;;
31081;SDS011;17737;52.586;13.284;2023-05-07T09:16:57;0.20;;;0.20;;
31081;SDS011;17737;52.586;13.284;2023-05-07T09:19:26;0.25;;;0.25;;
31081;SDS011;17737;52.586;13.284;2023-05-07T09:21:59;0.30;;;0.30;;
31081;SDS011;17737;52.586;13.284;2023-05-07T09:24:28;0.38;;;0.38;;
31081;SDS011;17737;52.586;13.284;2023-05-07T09:27:01;0.30;;;0.30;;
31081;SDS011;17737;52.586;13.284;2023-05-07T09:29:29;0.30;;;0.30;;
31081;SDS011;17737;52.586;13.284;2023-05-07T09:32:01;0.20;;;0.20;;
31081;SDS011;17737;52.586;13.284;2023-05-07T09:34:30;0.30;;;0.30;;
31081;SDS011;17737;52.586;13.284;2023-05-07T09:37:02;0.30;;;0.30;;
31081;SDS011;17737;52.586;13.284;2023-05-07T09:39:40;0.20;;;0.20;;
31081;SDS011;17737;52.586;13.284;2023-05-07T09:42:09;0.30;;;0.30;;
31081;SDS011;17737;52.586;13.284;2023-05-07T09:44:38;0.28;;;0.28;;
31081;SDS011;17737;52.586;13.284;2023-05-07T09:47:06;0.30;;;0.30;;
31081;SDS011;17737;52.586;13.284;2023-05-07T09:49:36;0.20;;;0.20;;
31081;SDS011;17737;52.586;13.284;2023-05-07T09:52:09;0.20;;;0.20;;
31081;SDS011;17737;52.586;13.284;2023-05-07T09:54:40;0.30;;;0.30;;
31081;SDS011;17737;52.586;13.284;2023-05-07T09:57:10;0.30;;;0.30;;
31081;SDS011;17737;52.586;13.284;2023-05-07T09:59:39;0.30;;;0.30;;
31081;SDS011;17737;52.586;13.284;2023-05-07T10:02:10;0.20;;;0.20;;
31081;SDS011;17737;52.586;13.284;2023-05-07T10:04:42;0.30;;;0.30;;
31081;SDS011;17737;52.586;13.284;2023-05-07T10:07:13;0.30;;;0.30;;
31081;SDS011;17737;52.586;13.284;2023-05-07T10:09:43;0.30;;;0.30;;
31081;SDS011;17737;52.586;13.284;2023-05-07T10:12:14;0.30;;;0.30;;
31081;SDS011;17737;52.586;13.284;2023-05-07T10:14:44;0.30;;;0.30;;
31081;SDS011;17737;52.586;13.284;2023-05-07T10:22:13;0.20;;;0.20;;
31081;SDS011;17737;52.586;13.284;2023-05-07T10:24:43;0.38;;;0.38;;
31081;SDS011;17737;52.586;13.284;2023-05-07T10:27:16;0.25;;;0.25;;
31081;SDS011;17737;52.586;13.284;2023-05-07T10:29:49;0.30;;;0.30;;
31081;SDS011;17737;52.586;13.284;2023-05-07T10:32:39;0.30;;;0.30;;
31081;SDS011;17737;52.586;13.284;2023-05-07T10:35:14;0.22;;;0.22;;
31081;SDS011;17737;52.586;13.284;2023-05-07T10:37:47;0.20;;;0.20;;
31081;SDS011;17737;52.586;13.284;2023-05-07T10:40:16;0.30;;;0.30;;
31081;SDS011;17737;52.586;13.284;2023-05-07T10:42:55;0.20;;;0.20;;
31081;SDS011;17737;52.586;13.284;2023-05-07T10:45:25;0.30;;;0.30;;
31081;SDS011;17737;52.586;13.284;2023-05-07T10:48:10;0.25;;;0.25;;
31081;SDS011;17737;52.586;13.284;2023-05-07T10:50:43;0.30;;;0.30;;
31081;SDS011;17737;52.586;13.284;2023-05-07T10:58:54;0.30;;;0.30;;
31081;SDS011;17737;52.586;13.284;2023-05-07T11:04:21;0.10;;;0.10;;
31081;SDS011;17737;52.586;13.284;2023-05-07T11:09:56;0.20;;;0.20;;
31081;SDS011;17737;52.586;13.284;2023-05-07T11:15:35;0.20;;;0.20;;
31081;SDS011;17737;52.586;13.284;2023-05-07T11:18:09;0.20;;;0.20;;
31081;SDS011;17737;52.586;13.284;2023-05-07T11:20:50;0.20;;;0.20;;
31081;SDS011;17737;52.586;13.284;2023-05-07T11:26:47;0.30;;;0.30;;
31081;SDS011;17737;52.586;13.284;2023-05-07T11:29:17;0.28;;;0.28;;
31081;SDS011;17737;52.586;13.284;2023-05-07T11:31:48;0.30;;;0.30;;
31081;SDS011;17737;52.586;13.284;2023-05-07T11:34:21;0.30;;;0.30;;
31081;SDS011;17737;52.586;13.284;2023-05-07T11:36:51;0.30;;;0.30;;
31081;SDS011;17737;52.586;13.284;2023-05-07T11:41:57;0.20;;;0.20;;
31081;SDS011;17737;52.586;13.284;2023-05-07T11:47:10;0.25;;;0.25;;
31081;SDS011;17737;52.586;13.284;2023-05-07T11:49:38;0.30;;;0.30;;
31081;SDS011;17737;52.586;13.284;2023-05-07T11:52:06;0.20;;;0.20;;
31081;SDS011;17737;52.586;13.284;2023-05-07T11:54:35;0.20;;;0.20;;
31081;SDS011;17737;52.586;13.284;2023-05-07T11:57:06;0.20;;;0.20;;
31081;SDS011;17737;52.586;13.284;2023-05-07T11:59:38;0.20;;;0.20;;
31081;SDS011;17737;52.586;13.284;2023-05-07T12:02:07;0.20;;;0.20;;
31081;SDS011;17737;52.586;13.284;2023-05-07T12:04:37;0.30;;;0.30;;
31081;SDS011;17737;52.586;13.284;2023-05-07T12:07:05;0.20;;;0.20;;
31081;SDS011;17737;52.586;13.284;2023-05-07T12:09:39;0.25;;;0.25;;
31081;SDS011;17737;52.586;13.284;2023-05-07T12:12:09;0.20;;;0.20;;
31081;SDS011;17737;52.586;13.284;2023-05-07T12:14:37;0.30;;;0.30;;
31081;SDS011;17737;52.586;13.284;2023-05-07T12:17:06;0.30;;;0.30;;
31081;SDS011;17737;52.586;13.284;2023-05-07T12:19:36;0.22;;;0.22;;
31081;SDS011;17737;52.586;13.284;2023-05-07T12:22:06;0.20;;;0.20;;
31081;SDS011;17737;52.586;13.284;2023-05-07T12:27:16;0.20;;;0.20;;
31081;SDS011;17737;52.586;13.284;2023-05-07T12:29:44;0.20;;;0.20;;
31081;SDS011;17737;52.586;13.284;2023-05-07T12:32:14;0.30;;;0.30;;
31081;SDS011;17737;52.586;13.284;2023-05-07T12:34:43;0.20;;;0.20;;
31081;SDS011;17737;52.586;13.284;2023-05-07T12:37:13;0.20;;;0.20;;
31081;SDS011;17737;52.586;13.284;2023-05-07T12:39:44;0.20;;;0.20;;
31081;SDS011;17737;52.586;13.284;2023-05-07T12:42:16;0.20;;;0.20;;
31081;SDS011;17737;52.586;13.284;2023-05-07T12:44:49;0.30;;;0.30;;
31081;SDS011;17737;52.586;13.284;2023-05-07T12:47:18;0.30;;;0.30;;
31081;SDS011;17737;52.586;13.284;2023-05-07T12:49:47;0.30;;;0.30;;
31081;SDS011;17737;52.586;13.284;2023-05-07T12:52:15;0.22;;;0.22;;
31081;SDS011;17737;52.586;13.284;2023-05-07T12:54:44;0.20;;;0.20;;
31081;SDS011;17737;52.586;13.284;2023-05-07T12:57:12;0.30;;;0.30;;
31081;SDS011;17737;52.586;13.284;2023-05-07T12:59:41;0.20;;;0.20;;
31081;SDS011;17737;52.586;13.284;2023-05-07T13:02:09;0.30;;;0.30;;
31081;SDS011;17737;52.586;13.284;2023-05-07T13:04:37;0.20;;;0.20;;
31081;SDS011;17737;52.586;13.284;2023-05-07T13:07:05;0.20;;;0.20;;
31081;SDS011;17737;52.586;13.284;2023-05-07T13:09:33;0.20;;;0.20;;
31081;SDS011;17737;52.586;13.284;2023-05-07T13:12:03;0.20;;;0.20;;
31081;SDS011;17737;52.586;13.284;2023-05-07T13:14:32;0.30;;;0.30;;
31081;SDS011;17737;52.586;13.284;2023-05-07T13:17:01;0.20;;;0.20;;
31081;SDS011;17737;52.586;13.284;2023-05-07T13:19:29;0.20;;;0.20;;
31081;SDS011;17737;52.586;13.284;2023-05-07T13:21:57;0.20;;;0.20;;
31081;SDS011;17737;52.586;13.284;2023-05-07T13:24:25;0.20;;;0.20;;
31081;SDS011;17737;52.586;13.284;2023-05-07T13:26:53;0.20;;;0.20;;
31081;SDS011;17737;52.586;13.284;2023-05-07T13:29:21;0.20;;;0.20;;
31081;SDS011;17737;52.586;13.284;2023-05-07T13:31:54;0.20;;;0.20;;
31081;SDS011;17737;52.586;13.284;2023-05-07T13:34:23;0.20;;;0.20;;
31081;SDS011;17737;52.586;13.284;2023-05-07T13:36:51;0.30;;;0.30;;
31081;SDS011;17737;52.586;13.284;2023-05-07T13:39:19;0.20;;;0.20;;
31081;SDS011;17737;52.586;13.284;2023-05-07T13:41:47;0.20;;;0.20;;
31081;SDS011;17737;52.586;13.284;2023-05-07T13:44:15;0.20;;;0.20;;
31081;SDS011;17737;52.586;13.284;2023-05-07T13:46:43;0.20;;;0.20;;
31081;SDS011;17737;52.586;13.284;2023-05-07T13:49:11;0.20;;;0.20;;
31081;SDS011;17737;52.586;13.284;2023-05-07T13:51:41;0.20;;;0.20;;
31081;SDS011;17737;52.586;13.284;2023-05-07T13:54:09;0.20;;;0.20;;
31081;SDS011;17737;52.586;13.284;2023-05-07T13:56:37;0.40;;;0.40;;
31081;SDS011;17737;52.586;13.284;2023-05-07T13:59:05;0.20;;;0.20;;
31081;SDS011;17737;52.586;13.284;2023-05-07T14:01:33;0.20;;;0.20;;
31081;SDS011;17737;52.586;13.284;2023-05-07T14:04:01;0.25;;;0.25;;
31081;SDS011;17737;52.586;13.284;2023-05-07T14:06:29;0.20;;;0.20;;
31081;SDS011;17737;52.586;13.284;2023-05-07T14:08:58;0.20;;;0.20;;
31081;SDS011;17737;52.586;13.284;2023-05-07T14:11:26;0.20;;;0.20;;
31081;SDS011;17737;52.586;13.284;2023-05-07T14:13:54;0.20;;;0.20;;
31081;SDS011;17737;52.586;13.284;2023-05-07T14:16:23;0.20;;;0.20;;
31081;SDS011;17737;52.586;13.284;2023-05-07T14:18:51;0.15;;;0.15;;
31081;SDS011;17737;52.586;13.284;2023-05-07T14:21:23;0.20;;;0.20;;
31081;SDS011;17737;52.586;13.284;2023-05-07T14:23:51;0.20;;;0.20;;
31081;SDS011;17737;52.586;13.284;2023-05-07T14:26:20;0.10;;;0.10;;
31081;SDS011;17737;52.586;13.284;2023-05-07T14:28:49;0.20;;;0.20;;
31081;SDS011;17737;52.586;13.284;2023-05-07T14:31:17;0.30;;;0.30;;
31081;SDS011;17737;52.586;13.284;2023-05-07T14:33:45;0.17;;;0.17;;
31081;SDS011;17737;52.586;13.284;2023-05-07T14:36:13;0.10;;;0.10;;
31081;SDS011;17737;52.586;13.284;2023-05-07T14:38:41;0.10;;;0.10;;
31081;SDS011;17737;52.586;13.284;2023-05-07T14:41:09;0.20;;;0.20;;
31081;SDS011;17737;52.586;13.284;2023-05-07T14:43:38;0.10;;;0.10;;
31081;SDS011;17737;52.586;13.284;2023-05-07T14:46:06;0.20;;;0.20;;
31081;SDS011;17737;52.586;13.284;2023-05-07T14:48:34;0.17;;;0.17;;
31081;SDS011;17737;52.586;13.284;2023-05-07T14:51:02;0.15;;;0.15;;
31081;SDS011;17737;52.586;13.284;2023-05-07T14:53:30;0.10;;;0.10;;
31081;SDS011;17737;52.586;13.284;2023-05-07T14:55:58;0.10;;;0.10;;
31081;SDS011;17737;52.586;13.284;2023-05-07T14:58:26;0.10;;;0.10;;
31081;SDS011;17737;52.586;13.284;2023-05-07T15:00:55;0.20;;;0.20;;
31081;SDS011;17737;52.586;13.284;2023-05-07T15:03:23;0.20;;;0.20;;
31081;SDS011;17737;52.586;13.284;2023-05-07T15:05:52;0.20;;;0.20;;
31081;SDS011;17737;52.586;13.284;2023-05-07T15:08:19;0.20;;;0.20;;
31081;SDS011;17737;52.586;13.284;2023-05-07T15:10:48;0.20;;;0.20;;
31081;SDS011;17737;52.586;13.284;2023-05-07T15:13:16;0.20;;;0.20;;
31081;SDS011;17737;52.586;13.284;2023-05-07T15:15:44;0.20;;;0.20;;
31081;SDS011;17737;52.586;13.284;2023-05-07T15:18:14;0.20;;;0.20;;
31081;SDS011;17737;52.586;13.284;2023-05-07T15:23:10;0.20;;;0.20;;
31081;SDS011;17737;52.586;13.284;2023-05-07T15:25:40;0.20;;;0.20;;
31081;SDS011;17737;52.586;13.284;2023-05-07T15:28:08;0.30;;;0.30;;